sensor_id;sensor_type;location;lat;lon;timestamp;temperature;humidity
10133;DHT22;5106;50.926;7.080;2024-02-23T00:01:47;7.00;96.50
10133;DHT22;5106;50.926;7.080;2024-02-23T00:04:13;7.00;96.50
10133;DHT22;5106;50.926;7.080;2024-02-23T00:06:39;7.00;96.50
10133;DHT22;5106;50.926;7.080;2024-02-23T00:09:04;7.00;96.50
10133;DHT22;5106;50.926;7.080;2024-02-23T00:11:30;7.00;96.50
10133;DHT22;5106;50.926;7.080;2024-02-23T00:13:56;6.90;96.50
10133;DHT22;5106;50.926;7.080;2024-02-23T00:16:21;6.90;96.50
10133;DHT22;5106;50.926;7.080;2024-02-23T00:18:47;6.80;96.50
10133;DHT22;5106;50.926;7.080;2024-02-23T00:21:12;6.70;96.50
10133;DHT22;5106;50.926;7.080;2024-02-23T00:23:38;6.70;96.50
10133;DHT22;5106;50.926;7.080;2024-02-23T00:26:03;6.70;96.50
10133;DHT22;5106;50.926;7.080;2024-02-23T00:28:29;6.60;96.50
10133;DHT22;5106;50.926;7.080;2024-02-23T00:30:55;6.60;96.50
10133;DHT22;5106;50.926;7.080;2024-02-23T00:33:20;6.60;96.50
10133;DHT22;5106;50.926;7.080;2024-02-23T00:35:46;6.50;96.50
10133;DHT22;5106;50.926;7.080;2024-02-23T00:38:11;6.50;96.50
10133;DHT22;5106;50.926;7.080;2024-02-23T00:40:37;6.40;96.50
10133;DHT22;5106;50.926;7.080;2024-02-23T00:43:04;6.40;96.50
10133;DHT22;5106;50.926;7.080;2024-02-23T00:45:29;6.40;96.50
10133;DHT22;5106;50.926;7.080;2024-02-23T00:47:55;6.40;96.50
10133;DHT22;5106;50.926;7.080;2024-02-23T00:50:22;6.30;96.50
10133;DHT22;5106;50.926;7.080;2024-02-23T00:52:49;6.30;96.50
10133;DHT22;5106;50.926;7.080;2024-02-23T00:55:14;6.20;96.50
10133;DHT22;5106;50.926;7.080;2024-02-23T00:57:40;6.20;96.50
10133;DHT22;5106;50.926;7.080;2024-02-23T01:00:06;6.10;96.50
10133;DHT22;5106;50.926;7.080;2024-02-23T01:02:32;6.10;96.50
10133;DHT22;5106;50.926;7.080;2024-02-23T01:05:00;6.00;96.50
10133;DHT22;5106;50.926;7.080;2024-02-23T01:07:27;6.00;96.50
10133;DHT22;5106;50.926;7.080;2024-02-23T01:09:53;6.00;96.50
10133;DHT22;5106;50.926;7.080;2024-02-23T01:12:19;5.90;96.50
10133;DHT22;5106;50.926;7.080;2024-02-23T01:14:44;5.90;96.50
10133;DHT22;5106;50.926;7.080;2024-02-23T01:17:10;5.90;96.50
10133;DHT22;5106;50.926;7.080;2024-02-23T01:19:35;5.90;96.50
10133;DHT22;5106;50.926;7.080;2024-02-23T01:22:01;5.80;96.50
10133;DHT22;5106;50.926;7.080;2024-02-23T01:24:27;5.80;96.50
10133;DHT22;5106;50.926;7.080;2024-02-23T01:26:54;5.80;96.50
10133;DHT22;5106;50.926;7.080;2024-02-23T01:29:21;5.80;96.50
10133;DHT22;5106;50.926;7.080;2024-02-23T01:31:47;5.80;96.50
10133;DHT22;5106;50.926;7.080;2024-02-23T01:34:13;5.80;96.50
10133;DHT22;5106;50.926;7.080;2024-02-23T01:36:39;5.80;96.50
10133;DHT22;5106;50.926;7.080;2024-02-23T01:39:05;5.80;96.50
10133;DHT22;5106;50.926;7.080;2024-02-23T01:41:30;5.80;96.50
10133;DHT22;5106;50.926;7.080;2024-02-23T01:43:56;5.80;96.50
10133;DHT22;5106;50.926;7.080;2024-02-23T01:46:21;5.80;96.50
10133;DHT22;5106;50.926;7.080;2024-02-23T01:48:47;5.80;96.50
10133;DHT22;5106;50.926;7.080;2024-02-23T01:51:13;5.70;96.50
10133;DHT22;5106;50.926;7.080;2024-02-23T01:53:39;5.70;96.50
10133;DHT22;5106;50.926;7.080;2024-02-23T01:56:06;5.70;96.50
10133;DHT22;5106;50.926;7.080;2024-02-23T01:58:33;5.70;96.50
10133;DHT22;5106;50.926;7.080;2024-02-23T02:01:00;5.60;96.50
10133;DHT22;5106;50.926;7.080;2024-02-23T02:03:26;5.60;96.50
10133;DHT22;5106;50.926;7.080;2024-02-23T02:05:53;5.60;96.50
10133;DHT22;5106;50.926;7.080;2024-02-23T02:08:19;5.60;96.50
10133;DHT22;5106;50.926;7.080;2024-02-23T02:10:45;5.60;96.50
10133;DHT22;5106;50.926;7.080;2024-02-23T02:13:12;5.60;96.50
10133;DHT22;5106;50.926;7.080;2024-02-23T02:15:38;5.60;96.50
10133;DHT22;5106;50.926;7.080;2024-02-23T02:18:04;5.70;96.50
10133;DHT22;5106;50.926;7.080;2024-02-23T02:20:32;5.70;96.50
10133;DHT22;5106;50.926;7.080;2024-02-23T02:22:58;5.70;96.50
10133;DHT22;5106;50.926;7.080;2024-02-23T02:25:24;5.70;96.50
10133;DHT22;5106;50.926;7.080;2024-02-23T02:27:49;5.70;96.50
10133;DHT22;5106;50.926;7.080;2024-02-23T02:30:15;5.60;96.50
10133;DHT22;5106;50.926;7.080;2024-02-23T02:32:40;5.60;96.50
10133;DHT22;5106;50.926;7.080;2024-02-23T02:35:06;5.60;96.50
10133;DHT22;5106;50.926;7.080;2024-02-23T02:37:32;5.50;96.50
10133;DHT22;5106;50.926;7.080;2024-02-23T02:39:58;5.50;96.50
10133;DHT22;5106;50.926;7.080;2024-02-23T02:42:23;5.50;96.50
10133;DHT22;5106;50.926;7.080;2024-02-23T02:44:49;5.50;96.50
10133;DHT22;5106;50.926;7.080;2024-02-23T02:47:14;5.50;96.50
10133;DHT22;5106;50.926;7.080;2024-02-23T02:49:40;5.50;96.50
10133;DHT22;5106;50.926;7.080;2024-02-23T02:52:06;5.50;96.50
10133;DHT22;5106;50.926;7.080;2024-02-23T02:54:33;5.50;96.50
10133;DHT22;5106;50.926;7.080;2024-02-23T02:56:59;5.50;96.50
10133;DHT22;5106;50.926;7.080;2024-02-23T02:59:25;5.50;96.50
10133;DHT22;5106;50.926;7.080;2024-02-23T03:01:50;5.50;96.50
10133;DHT22;5106;50.926;7.080;2024-02-23T03:04:16;5.50;96.50
10133;DHT22;5106;50.926;7.080;2024-02-23T03:06:41;5.50;96.50
10133;DHT22;5106;50.926;7.080;2024-02-23T03:09:07;5.50;96.50
10133;DHT22;5106;50.926;7.080;2024-02-23T03:11:33;5.50;96.50
10133;DHT22;5106;50.926;7.080;2024-02-23T03:13:58;5.50;96.50
10133;DHT22;5106;50.926;7.080;2024-02-23T03:16:24;5.50;96.50
10133;DHT22;5106;50.926;7.080;2024-02-23T03:18:52;5.50;96.50
10133;DHT22;5106;50.926;7.080;2024-02-23T03:21:19;5.50;96.50
10133;DHT22;5106;50.926;7.080;2024-02-23T03:23:45;5.40;96.50
10133;DHT22;5106;50.926;7.080;2024-02-23T03:26:11;5.40;96.50
10133;DHT22;5106;50.926;7.080;2024-02-23T03:28:36;5.40;96.50
10133;DHT22;5106;50.926;7.080;2024-02-23T03:31:02;5.40;96.50
10133;DHT22;5106;50.926;7.080;2024-02-23T03:33:28;5.40;96.50
10133;DHT22;5106;50.926;7.080;2024-02-23T03:35:53;5.30;96.50
10133;DHT22;5106;50.926;7.080;2024-02-23T03:38:19;5.30;96.50
10133;DHT22;5106;50.926;7.080;2024-02-23T03:40:44;5.30;96.50
10133;DHT22;5106;50.926;7.080;2024-02-23T03:43:10;5.20;96.50
10133;DHT22;5106;50.926;7.080;2024-02-23T03:45:36;5.20;96.50
10133;DHT22;5106;50.926;7.080;2024-02-23T03:48:03;5.20;96.50
10133;DHT22;5106;50.926;7.080;2024-02-23T03:50:30;5.20;96.50
10133;DHT22;5106;50.926;7.080;2024-02-23T03:52:55;5.10;96.50
10133;DHT22;5106;50.926;7.080;2024-02-23T03:55:21;5.10;96.50
10133;DHT22;5106;50.926;7.080;2024-02-23T03:57:47;5.10;96.50
10133;DHT22;5106;50.926;7.080;2024-02-23T04:00:13;5.10;96.50
10133;DHT22;5106;50.926;7.080;2024-02-23T04:02:39;5.10;96.50
10133;DHT22;5106;50.926;7.080;2024-02-23T04:05:05;5.10;96.50
10133;DHT22;5106;50.926;7.080;2024-02-23T04:07:31;5.10;96.50
10133;DHT22;5106;50.926;7.080;2024-02-23T04:09:57;5.00;96.50
10133;DHT22;5106;50.926;7.080;2024-02-23T04:12:23;5.10;96.50
10133;DHT22;5106;50.926;7.080;2024-02-23T04:14:48;5.10;96.50
10133;DHT22;5106;50.926;7.080;2024-02-23T04:17:14;5.10;96.50
10133;DHT22;5106;50.926;7.080;2024-02-23T04:19:43;5.10;96.50
10133;DHT22;5106;50.926;7.080;2024-02-23T04:22:09;5.20;96.50
10133;DHT22;5106;50.926;7.080;2024-02-23T04:24:37;5.20;96.50
10133;DHT22;5106;50.926;7.080;2024-02-23T04:27:04;5.30;96.50
10133;DHT22;5106;50.926;7.080;2024-02-23T04:29:30;5.30;96.50
10133;DHT22;5106;50.926;7.080;2024-02-23T04:31:55;5.40;96.50
10133;DHT22;5106;50.926;7.080;2024-02-23T04:34:21;5.40;96.50
10133;DHT22;5106;50.926;7.080;2024-02-23T04:36:46;5.40;96.50
10133;DHT22;5106;50.926;7.080;2024-02-23T04:39:12;5.50;96.50
10133;DHT22;5106;50.926;7.080;2024-02-23T04:41:38;5.50;96.50
10133;DHT22;5106;50.926;7.080;2024-02-23T04:44:03;5.60;96.50
10133;DHT22;5106;50.926;7.080;2024-02-23T04:46:30;5.60;96.50
10133;DHT22;5106;50.926;7.080;2024-02-23T04:48:56;5.60;96.50
10133;DHT22;5106;50.926;7.080;2024-02-23T04:51:22;5.60;96.50
10133;DHT22;5106;50.926;7.080;2024-02-23T04:53:50;5.60;96.50
10133;DHT22;5106;50.926;7.080;2024-02-23T04:56:16;5.60;96.50
10133;DHT22;5106;50.926;7.080;2024-02-23T04:58:42;5.60;96.50
10133;DHT22;5106;50.926;7.080;2024-02-23T05:01:08;5.60;96.50
10133;DHT22;5106;50.926;7.080;2024-02-23T05:03:34;5.70;96.50
10133;DHT22;5106;50.926;7.080;2024-02-23T05:06:00;5.60;96.50
10133;DHT22;5106;50.926;7.080;2024-02-23T05:08:25;5.70;96.50
10133;DHT22;5106;50.926;7.080;2024-02-23T05:10:53;5.70;96.50
10133;DHT22;5106;50.926;7.080;2024-02-23T05:13:18;5.70;96.50
10133;DHT22;5106;50.926;7.080;2024-02-23T05:15:44;5.70;96.50
10133;DHT22;5106;50.926;7.080;2024-02-23T05:18:09;5.70;96.50
10133;DHT22;5106;50.926;7.080;2024-02-23T05:20:35;5.70;96.50
10133;DHT22;5106;50.926;7.080;2024-02-23T05:23:00;5.60;96.50
10133;DHT22;5106;50.926;7.080;2024-02-23T05:25:26;5.60;96.50
10133;DHT22;5106;50.926;7.080;2024-02-23T05:27:52;5.60;96.50
10133;DHT22;5106;50.926;7.080;2024-02-23T05:30:18;5.60;96.50
10133;DHT22;5106;50.926;7.080;2024-02-23T05:32:43;5.50;96.50
10133;DHT22;5106;50.926;7.080;2024-02-23T05:35:09;5.50;96.50
10133;DHT22;5106;50.926;7.080;2024-02-23T05:37:38;5.50;96.50
10133;DHT22;5106;50.926;7.080;2024-02-23T05:40:04;5.40;96.50
10133;DHT22;5106;50.926;7.080;2024-02-23T05:42:35;5.40;96.50
10133;DHT22;5106;50.926;7.080;2024-02-23T05:45:01;5.30;96.50
10133;DHT22;5106;50.926;7.080;2024-02-23T05:47:27;5.20;96.50
10133;DHT22;5106;50.926;7.080;2024-02-23T05:49:53;5.20;96.50
10133;DHT22;5106;50.926;7.080;2024-02-23T05:52:19;5.10;96.50
10133;DHT22;5106;50.926;7.080;2024-02-23T05:54:44;5.10;96.50
10133;DHT22;5106;50.926;7.080;2024-02-23T05:57:10;5.10;96.50
10133;DHT22;5106;50.926;7.080;2024-02-23T05:59:35;5.00;96.50
10133;DHT22;5106;50.926;7.080;2024-02-23T06:02:01;5.00;96.50
10133;DHT22;5106;50.926;7.080;2024-02-23T06:04:26;5.00;96.50
10133;DHT22;5106;50.926;7.080;2024-02-23T06:06:53;5.00;96.50
10133;DHT22;5106;50.926;7.080;2024-02-23T06:09:18;5.00;96.50
10133;DHT22;5106;50.926;7.080;2024-02-23T06:11:44;5.00;96.50
10133;DHT22;5106;50.926;7.080;2024-02-23T06:14:10;5.00;96.50
10133;DHT22;5106;50.926;7.080;2024-02-23T06:16:36;5.00;96.50
10133;DHT22;5106;50.926;7.080;2024-02-23T06:19:02;4.90;96.50
10133;DHT22;5106;50.926;7.080;2024-02-23T06:21:29;4.90;96.50
10133;DHT22;5106;50.926;7.080;2024-02-23T06:23:54;4.90;96.50
10133;DHT22;5106;50.926;7.080;2024-02-23T06:26:21;4.90;96.50
10133;DHT22;5106;50.926;7.080;2024-02-23T06:28:46;4.80;96.50
10133;DHT22;5106;50.926;7.080;2024-02-23T06:31:12;4.80;96.50
10133;DHT22;5106;50.926;7.080;2024-02-23T06:33:38;4.80;96.50
10133;DHT22;5106;50.926;7.080;2024-02-23T06:36:04;4.80;96.50
10133;DHT22;5106;50.926;7.080;2024-02-23T06:38:29;4.80;96.50
10133;DHT22;5106;50.926;7.080;2024-02-23T06:40:55;4.70;96.50
10133;DHT22;5106;50.926;7.080;2024-02-23T06:43:21;4.80;96.50
10133;DHT22;5106;50.926;7.080;2024-02-23T06:45:47;4.70;96.50
10133;DHT22;5106;50.926;7.080;2024-02-23T06:48:13;4.80;96.50
10133;DHT22;5106;50.926;7.080;2024-02-23T06:50:38;4.80;96.50
10133;DHT22;5106;50.926;7.080;2024-02-23T06:53:04;4.80;96.50
10133;DHT22;5106;50.926;7.080;2024-02-23T06:55:32;4.80;96.50
10133;DHT22;5106;50.926;7.080;2024-02-23T06:57:58;4.80;96.50
10133;DHT22;5106;50.926;7.080;2024-02-23T07:00:24;4.80;96.50
10133;DHT22;5106;50.926;7.080;2024-02-23T07:02:49;4.80;96.50
10133;DHT22;5106;50.926;7.080;2024-02-23T07:05:15;4.80;96.50
10133;DHT22;5106;50.926;7.080;2024-02-23T07:07:40;4.80;96.50
10133;DHT22;5106;50.926;7.080;2024-02-23T07:10:07;4.80;96.50
10133;DHT22;5106;50.926;7.080;2024-02-23T07:12:33;4.70;96.50
10133;DHT22;5106;50.926;7.080;2024-02-23T07:14:59;4.70;96.50
10133;DHT22;5106;50.926;7.080;2024-02-23T07:17:24;4.70;96.50
10133;DHT22;5106;50.926;7.080;2024-02-23T07:19:50;4.80;96.50
10133;DHT22;5106;50.926;7.080;2024-02-23T07:22:17;4.80;96.50
10133;DHT22;5106;50.926;7.080;2024-02-23T07:24:45;4.80;96.50
10133;DHT22;5106;50.926;7.080;2024-02-23T07:27:11;4.90;96.50
10133;DHT22;5106;50.926;7.080;2024-02-23T07:29:37;5.00;96.50
10133;DHT22;5106;50.926;7.080;2024-02-23T07:32:03;5.10;96.50
10133;DHT22;5106;50.926;7.080;2024-02-23T07:34:30;5.20;96.50
10133;DHT22;5106;50.926;7.080;2024-02-23T07:36:56;5.30;96.50
10133;DHT22;5106;50.926;7.080;2024-02-23T07:39:22;5.30;96.50
10133;DHT22;5106;50.926;7.080;2024-02-23T07:41:48;5.40;96.50
10133;DHT22;5106;50.926;7.080;2024-02-23T07:44:13;5.50;96.50
10133;DHT22;5106;50.926;7.080;2024-02-23T07:46:39;5.50;96.50
10133;DHT22;5106;50.926;7.080;2024-02-23T07:49:05;5.60;96.50
10133;DHT22;5106;50.926;7.080;2024-02-23T07:51:31;5.60;96.50
10133;DHT22;5106;50.926;7.080;2024-02-23T07:53:57;5.60;96.50
10133;DHT22;5106;50.926;7.080;2024-02-23T07:56:22;5.60;96.50
10133;DHT22;5106;50.926;7.080;2024-02-23T07:58:48;5.70;96.50
10133;DHT22;5106;50.926;7.080;2024-02-23T08:01:14;5.80;96.50
10133;DHT22;5106;50.926;7.080;2024-02-23T08:03:40;5.80;96.50
10133;DHT22;5106;50.926;7.080;2024-02-23T08:06:06;5.90;96.50
10133;DHT22;5106;50.926;7.080;2024-02-23T08:08:32;6.00;96.50
10133;DHT22;5106;50.926;7.080;2024-02-23T08:11:02;6.00;96.50
10133;DHT22;5106;50.926;7.080;2024-02-23T08:13:28;6.10;96.50
10133;DHT22;5106;50.926;7.080;2024-02-23T08:15:53;6.20;96.50
10133;DHT22;5106;50.926;7.080;2024-02-23T08:18:19;6.30;96.50
10133;DHT22;5106;50.926;7.080;2024-02-23T08:20:44;6.40;96.50
10133;DHT22;5106;50.926;7.080;2024-02-23T08:23:10;6.40;96.50
10133;DHT22;5106;50.926;7.080;2024-02-23T08:25:36;6.50;96.50
10133;DHT22;5106;50.926;7.080;2024-02-23T08:28:02;6.50;96.50
10133;DHT22;5106;50.926;7.080;2024-02-23T08:30:27;6.50;96.50
10133;DHT22;5106;50.926;7.080;2024-02-23T08:32:53;6.60;96.50
10133;DHT22;5106;50.926;7.080;2024-02-23T08:35:19;6.60;96.50
10133;DHT22;5106;50.926;7.080;2024-02-23T08:37:45;6.70;96.50
10133;DHT22;5106;50.926;7.080;2024-02-23T08:40:11;6.70;96.50
10133;DHT22;5106;50.926;7.080;2024-02-23T08:42:37;6.80;96.50
10133;DHT22;5106;50.926;7.080;2024-02-23T08:45:03;6.80;96.50
10133;DHT22;5106;50.926;7.080;2024-02-23T08:47:30;6.90;96.50
10133;DHT22;5106;50.926;7.080;2024-02-23T08:49:58;6.90;96.50
10133;DHT22;5106;50.926;7.080;2024-02-23T08:52:23;6.90;96.50
10133;DHT22;5106;50.926;7.080;2024-02-23T08:54:50;7.00;96.50
10133;DHT22;5106;50.926;7.080;2024-02-23T08:57:16;7.10;96.50
10133;DHT22;5106;50.926;7.080;2024-02-23T08:59:45;7.10;96.50
10133;DHT22;5106;50.926;7.080;2024-02-23T09:02:10;7.20;96.50
10133;DHT22;5106;50.926;7.080;2024-02-23T09:04:36;7.20;96.50
10133;DHT22;5106;50.926;7.080;2024-02-23T09:07:02;7.30;96.50
10133;DHT22;5106;50.926;7.080;2024-02-23T09:09:27;7.30;96.50
10133;DHT22;5106;50.926;7.080;2024-02-23T09:11:53;7.40;96.50
10133;DHT22;5106;50.926;7.080;2024-02-23T09:14:19;7.40;96.50
10133;DHT22;5106;50.926;7.080;2024-02-23T09:16:44;7.40;96.50
10133;DHT22;5106;50.926;7.080;2024-02-23T09:19:11;7.50;96.50
10133;DHT22;5106;50.926;7.080;2024-02-23T09:21:37;7.50;96.50
10133;DHT22;5106;50.926;7.080;2024-02-23T09:24:04;7.60;96.50
10133;DHT22;5106;50.926;7.080;2024-02-23T09:26:30;7.60;96.50
10133;DHT22;5106;50.926;7.080;2024-02-23T09:28:56;7.60;96.50
10133;DHT22;5106;50.926;7.080;2024-02-23T09:31:22;7.60;96.50
10133;DHT22;5106;50.926;7.080;2024-02-23T09:33:48;7.60;96.50
10133;DHT22;5106;50.926;7.080;2024-02-23T09:36:16;7.60;96.50
10133;DHT22;5106;50.926;7.080;2024-02-23T09:38:42;7.60;96.50
10133;DHT22;5106;50.926;7.080;2024-02-23T09:41:15;7.70;96.50
10133;DHT22;5106;50.926;7.080;2024-02-23T09:43:44;7.70;96.50
10133;DHT22;5106;50.926;7.080;2024-02-23T09:46:12;7.80;96.50
10133;DHT22;5106;50.926;7.080;2024-02-23T09:48:38;7.80;96.50
10133;DHT22;5106;50.926;7.080;2024-02-23T09:51:05;7.90;96.50
10133;DHT22;5106;50.926;7.080;2024-02-23T09:53:32;7.90;96.50
10133;DHT22;5106;50.926;7.080;2024-02-23T09:55:59;7.90;96.50
10133;DHT22;5106;50.926;7.080;2024-02-23T09:58:26;7.90;96.50
10133;DHT22;5106;50.926;7.080;2024-02-23T10:00:52;7.90;96.50
10133;DHT22;5106;50.926;7.080;2024-02-23T10:03:18;8.00;96.50
10133;DHT22;5106;50.926;7.080;2024-02-23T10:05:43;8.10;96.50
10133;DHT22;5106;50.926;7.080;2024-02-23T10:08:10;8.20;96.50
10133;DHT22;5106;50.926;7.080;2024-02-23T10:10:37;8.40;96.50
10133;DHT22;5106;50.926;7.080;2024-02-23T10:13:03;8.50;96.50
10133;DHT22;5106;50.926;7.080;2024-02-23T10:15:31;8.50;96.50
10133;DHT22;5106;50.926;7.080;2024-02-23T10:17:57;8.50;96.50
10133;DHT22;5106;50.926;7.080;2024-02-23T10:20:22;8.40;96.50
10133;DHT22;5106;50.926;7.080;2024-02-23T10:22:48;8.40;96.50
10133;DHT22;5106;50.926;7.080;2024-02-23T10:25:14;8.40;96.50
10133;DHT22;5106;50.926;7.080;2024-02-23T10:27:41;8.40;96.50
10133;DHT22;5106;50.926;7.080;2024-02-23T10:30:08;8.30;96.50
10133;DHT22;5106;50.926;7.080;2024-02-23T10:32:38;8.30;96.50
10133;DHT22;5106;50.926;7.080;2024-02-23T10:35:14;8.30;96.50
10133;DHT22;5106;50.926;7.080;2024-02-23T10:37:44;8.30;96.50
10133;DHT22;5106;50.926;7.080;2024-02-23T10:40:14;8.40;96.50
10133;DHT22;5106;50.926;7.080;2024-02-23T10:42:43;8.40;96.50
10133;DHT22;5106;50.926;7.080;2024-02-23T10:45:15;8.50;96.50
10133;DHT22;5106;50.926;7.080;2024-02-23T10:47:42;8.50;96.50
10133;DHT22;5106;50.926;7.080;2024-02-23T10:50:08;8.60;96.50
10133;DHT22;5106;50.926;7.080;2024-02-23T10:52:35;8.60;96.50
10133;DHT22;5106;50.926;7.080;2024-02-23T10:55:02;8.80;96.50
10133;DHT22;5106;50.926;7.080;2024-02-23T10:57:35;8.90;96.50
10133;DHT22;5106;50.926;7.080;2024-02-23T11:00:01;9.00;96.50
10133;DHT22;5106;50.926;7.080;2024-02-23T11:02:31;9.00;96.50
10133;DHT22;5106;50.926;7.080;2024-02-23T11:05:00;9.00;96.50
10133;DHT22;5106;50.926;7.080;2024-02-23T11:07:25;9.00;96.50
10133;DHT22;5106;50.926;7.080;2024-02-23T11:09:53;9.00;96.50
10133;DHT22;5106;50.926;7.080;2024-02-23T11:12:26;9.10;96.50
10133;DHT22;5106;50.926;7.080;2024-02-23T11:14:58;9.10;96.50
10133;DHT22;5106;50.926;7.080;2024-02-23T11:17:26;9.20;96.50
10133;DHT22;5106;50.926;7.080;2024-02-23T11:19:54;9.10;96.50
10133;DHT22;5106;50.926;7.080;2024-02-23T11:22:27;9.10;96.50
10133;DHT22;5106;50.926;7.080;2024-02-23T11:24:59;9.00;96.50
10133;DHT22;5106;50.926;7.080;2024-02-23T11:27:24;8.90;96.50
10133;DHT22;5106;50.926;7.080;2024-02-23T11:30:06;8.80;96.50
10133;DHT22;5106;50.926;7.080;2024-02-23T11:32:38;8.80;96.50
10133;DHT22;5106;50.926;7.080;2024-02-23T11:35:07;8.80;96.50
10133;DHT22;5106;50.926;7.080;2024-02-23T11:38:01;8.80;96.50
10133;DHT22;5106;50.926;7.080;2024-02-23T11:40:32;8.90;96.50
10133;DHT22;5106;50.926;7.080;2024-02-23T11:42:59;8.90;96.50
10133;DHT22;5106;50.926;7.080;2024-02-23T11:45:31;8.90;96.50
10133;DHT22;5106;50.926;7.080;2024-02-23T11:47:56;8.90;96.50
10133;DHT22;5106;50.926;7.080;2024-02-23T11:50:22;9.00;96.50
10133;DHT22;5106;50.926;7.080;2024-02-23T11:52:47;9.00;96.50
10133;DHT22;5106;50.926;7.080;2024-02-23T11:55:19;9.00;96.50
10133;DHT22;5106;50.926;7.080;2024-02-23T11:57:48;9.00;96.50
10133;DHT22;5106;50.926;7.080;2024-02-23T12:00:14;9.00;96.50
10133;DHT22;5106;50.926;7.080;2024-02-23T12:02:40;9.00;96.50
10133;DHT22;5106;50.926;7.080;2024-02-23T12:05:06;9.00;96.50
10133;DHT22;5106;50.926;7.080;2024-02-23T12:07:32;8.90;96.50
10133;DHT22;5106;50.926;7.080;2024-02-23T12:09:58;8.90;96.50
10133;DHT22;5106;50.926;7.080;2024-02-23T12:12:25;8.80;96.50
10133;DHT22;5106;50.926;7.080;2024-02-23T12:14:51;8.80;96.50
10133;DHT22;5106;50.926;7.080;2024-02-23T12:17:18;8.80;96.50
10133;DHT22;5106;50.926;7.080;2024-02-23T12:19:43;8.80;96.50
10133;DHT22;5106;50.926;7.080;2024-02-23T12:22:10;8.70;96.50
10133;DHT22;5106;50.926;7.080;2024-02-23T12:24:36;8.70;96.50
10133;DHT22;5106;50.926;7.080;2024-02-23T12:27:02;8.70;96.50
10133;DHT22;5106;50.926;7.080;2024-02-23T12:29:28;8.60;96.50
10133;DHT22;5106;50.926;7.080;2024-02-23T12:32:05;8.60;96.50
10133;DHT22;5106;50.926;7.080;2024-02-23T12:34:30;8.60;96.50
10133;DHT22;5106;50.926;7.080;2024-02-23T12:36:56;8.60;96.50
10133;DHT22;5106;50.926;7.080;2024-02-23T12:39:22;8.60;96.50
10133;DHT22;5106;50.926;7.080;2024-02-23T12:41:47;8.60;96.50
10133;DHT22;5106;50.926;7.080;2024-02-23T12:44:13;8.70;96.50
10133;DHT22;5106;50.926;7.080;2024-02-23T12:46:40;8.70;96.50
10133;DHT22;5106;50.926;7.080;2024-02-23T12:49:05;8.80;96.50
10133;DHT22;5106;50.926;7.080;2024-02-23T12:51:31;8.90;96.50
10133;DHT22;5106;50.926;7.080;2024-02-23T12:53:56;9.00;96.50
10133;DHT22;5106;50.926;7.080;2024-02-23T12:56:22;9.10;96.50
10133;DHT22;5106;50.926;7.080;2024-02-23T12:58:48;9.20;96.50
10133;DHT22;5106;50.926;7.080;2024-02-23T13:01:14;9.30;96.50
10133;DHT22;5106;50.926;7.080;2024-02-23T13:03:40;9.30;96.50
10133;DHT22;5106;50.926;7.080;2024-02-23T13:06:06;9.40;96.50
10133;DHT22;5106;50.926;7.080;2024-02-23T13:08:32;9.50;96.50
10133;DHT22;5106;50.926;7.080;2024-02-23T13:10:58;9.50;96.50
10133;DHT22;5106;50.926;7.080;2024-02-23T13:13:24;9.50;96.50
10133;DHT22;5106;50.926;7.080;2024-02-23T13:15:51;9.50;96.50
10133;DHT22;5106;50.926;7.080;2024-02-23T13:18:17;9.40;96.50
10133;DHT22;5106;50.926;7.080;2024-02-23T13:20:43;9.40;96.50
10133;DHT22;5106;50.926;7.080;2024-02-23T13:23:12;9.40;96.50
10133;DHT22;5106;50.926;7.080;2024-02-23T13:25:39;9.30;96.50
10133;DHT22;5106;50.926;7.080;2024-02-23T13:28:06;9.30;96.50
10133;DHT22;5106;50.926;7.080;2024-02-23T13:30:32;9.30;96.50
10133;DHT22;5106;50.926;7.080;2024-02-23T13:32:58;9.30;96.50
10133;DHT22;5106;50.926;7.080;2024-02-23T13:35:24;9.40;96.50
10133;DHT22;5106;50.926;7.080;2024-02-23T13:37:50;9.40;96.50
10133;DHT22;5106;50.926;7.080;2024-02-23T13:40:16;9.60;96.50
10133;DHT22;5106;50.926;7.080;2024-02-23T13:42:42;9.60;96.50
10133;DHT22;5106;50.926;7.080;2024-02-23T13:45:08;9.60;96.50
10133;DHT22;5106;50.926;7.080;2024-02-23T13:47:34;9.60;96.50
10133;DHT22;5106;50.926;7.080;2024-02-23T13:50:00;9.70;96.50
10133;DHT22;5106;50.926;7.080;2024-02-23T13:52:26;9.70;96.50
10133;DHT22;5106;50.926;7.080;2024-02-23T13:54:52;9.70;96.50
10133;DHT22;5106;50.926;7.080;2024-02-23T13:57:18;9.70;96.50
10133;DHT22;5106;50.926;7.080;2024-02-23T13:59:43;9.70;96.50
10133;DHT22;5106;50.926;7.080;2024-02-23T14:02:09;9.70;96.50
10133;DHT22;5106;50.926;7.080;2024-02-23T14:04:35;9.80;96.50
10133;DHT22;5106;50.926;7.080;2024-02-23T14:07:01;9.70;96.50
10133;DHT22;5106;50.926;7.080;2024-02-23T14:09:26;9.80;96.50
10133;DHT22;5106;50.926;7.080;2024-02-23T14:11:52;9.80;96.50
10133;DHT22;5106;50.926;7.080;2024-02-23T14:14:18;9.90;96.50
10133;DHT22;5106;50.926;7.080;2024-02-23T14:16:44;9.90;96.50
10133;DHT22;5106;50.926;7.080;2024-02-23T14:19:09;9.90;96.50
10133;DHT22;5106;50.926;7.080;2024-02-23T14:21:35;9.90;96.50
10133;DHT22;5106;50.926;7.080;2024-02-23T14:24:02;9.90;96.50
10133;DHT22;5106;50.926;7.080;2024-02-23T14:26:28;9.80;96.50
10133;DHT22;5106;50.926;7.080;2024-02-23T14:28:53;9.90;96.50
10133;DHT22;5106;50.926;7.080;2024-02-23T14:31:19;10.20;96.50
10133;DHT22;5106;50.926;7.080;2024-02-23T14:33:45;10.40;96.50
10133;DHT22;5106;50.926;7.080;2024-02-23T14:36:10;10.70;96.50
10133;DHT22;5106;50.926;7.080;2024-02-23T14:38:36;10.90;96.50
10133;DHT22;5106;50.926;7.080;2024-02-23T14:41:01;11.00;96.50
10133;DHT22;5106;50.926;7.080;2024-02-23T14:43:27;11.00;96.50
10133;DHT22;5106;50.926;7.080;2024-02-23T14:45:55;11.00;96.50
10133;DHT22;5106;50.926;7.080;2024-02-23T14:48:20;11.00;96.50
10133;DHT22;5106;50.926;7.080;2024-02-23T14:50:46;10.80;96.50
10133;DHT22;5106;50.926;7.080;2024-02-23T14:53:11;10.60;96.50
10133;DHT22;5106;50.926;7.080;2024-02-23T14:55:37;10.40;96.50
10133;DHT22;5106;50.926;7.080;2024-02-23T14:58:03;10.20;96.50
10133;DHT22;5106;50.926;7.080;2024-02-23T15:00:29;10.00;96.50
10133;DHT22;5106;50.926;7.080;2024-02-23T15:02:56;9.90;96.50
10133;DHT22;5106;50.926;7.080;2024-02-23T15:05:22;9.70;96.50
10133;DHT22;5106;50.926;7.080;2024-02-23T15:07:48;9.60;96.50
10133;DHT22;5106;50.926;7.080;2024-02-23T15:10:14;9.50;96.50
10133;DHT22;5106;50.926;7.080;2024-02-23T15:12:39;9.50;96.50
10133;DHT22;5106;50.926;7.080;2024-02-23T15:15:05;9.40;96.50
10133;DHT22;5106;50.926;7.080;2024-02-23T15:17:32;9.40;96.50
10133;DHT22;5106;50.926;7.080;2024-02-23T15:19:58;9.40;96.50
10133;DHT22;5106;50.926;7.080;2024-02-23T15:22:23;9.40;96.50
10133;DHT22;5106;50.926;7.080;2024-02-23T15:24:51;9.40;96.50
10133;DHT22;5106;50.926;7.080;2024-02-23T15:27:16;9.40;96.50
10133;DHT22;5106;50.926;7.080;2024-02-23T15:29:43;9.40;96.50
10133;DHT22;5106;50.926;7.080;2024-02-23T15:32:09;9.40;96.50
10133;DHT22;5106;50.926;7.080;2024-02-23T15:34:36;9.40;96.50
10133;DHT22;5106;50.926;7.080;2024-02-23T15:37:01;9.30;96.50
10133;DHT22;5106;50.926;7.080;2024-02-23T15:39:27;9.30;96.50
10133;DHT22;5106;50.926;7.080;2024-02-23T15:41:53;9.30;96.50
10133;DHT22;5106;50.926;7.080;2024-02-23T15:44:18;9.20;96.50
10133;DHT22;5106;50.926;7.080;2024-02-23T15:46:44;9.20;96.50
10133;DHT22;5106;50.926;7.080;2024-02-23T15:49:11;9.20;96.50
10133;DHT22;5106;50.926;7.080;2024-02-23T15:51:36;9.20;96.50
10133;DHT22;5106;50.926;7.080;2024-02-23T15:54:03;9.20;96.50
10133;DHT22;5106;50.926;7.080;2024-02-23T15:56:30;9.30;96.50